Time;durP1;ratioP1;P1;durP2;ratioP2;P2;SDS_P1;SDS_P2;PMS_P1;PMS_P2;Temp;Humidity;BMP_temperature;BMP_pressure;BME280_temperature;BME280_humidity;BME280_pressure;Samples;Min_cycle;Max_cycle;Signal;HPM_P1;HPM_P2
2022/01/04 00:02:23;;;;;;;;;;;20.10;49.80;;;;;;5090584;28;19909;-63
2022/01/04 00:04:48;;;;;;;;;;;20.00;49.80;;;;;;5091808;28;19916;-64
2022/01/04 00:07:14;;;;;;;;;;;20.00;49.80;;;;;;5089342;28;19938;-63
2022/01/04 00:09:42;;;;;;;;;;;20.00;50.00;;;;;;5091827;28;20002;-63
2022/01/04 00:14:55;;;;;;;;;;;19.90;50.00;;;;;;5068535;28;19931;-63
2022/01/04 00:17:21;;;;;;;;;;;19.90;49.90;;;;;;5048078;28;19925;-63
2022/01/04 00:19:46;;;;;;;;;;;19.90;49.80;;;;;;5048293;28;19924;-63
2022/01/04 00:22:11;;;;;;;;;;;19.90;49.70;;;;;;5050284;28;19913;-63
2022/01/04 00:24:37;;;;;;;;;;;19.90;49.70;;;;;;5084252;28;19996;-63
2022/01/04 00:27:02;;;;;;;;;;;19.90;49.70;;;;;;5051108;28;20285;-63
2022/01/04 00:29:28;;;;;;;;;;;19.90;49.80;;;;;;5051649;28;19956;-63
2022/01/04 00:31:53;;;;;;;;;;;19.90;49.70;;;;;;5051520;28;19916;-63
2022/01/04 00:34:19;;;;;;;;;;;19.90;49.90;;;;;;5049995;28;19913;-63
2022/01/04 00:36:44;;;;;;;;;;;19.90;49.90;;;;;;5051127;28;19959;-63
2022/01/04 00:39:10;;;;;;;;;;;19.80;49.80;;;;;;5051006;28;19920;-63
2022/01/04 00:41:35;;;;;;;;;;;19.80;49.80;;;;;;5050057;28;19960;-63
2022/01/04 00:44:00;;;;;;;;;;;19.80;49.80;;;;;;5051394;28;19924;-63
2022/01/04 00:46:26;;;;;;;;;;;19.80;49.80;;;;;;5051179;28;20410;-63
2022/01/04 00:49:10;;;;;;;;;;;19.80;49.70;;;;;;5050673;28;20285;-63
2022/01/04 00:51:45;;;;;;;;;;;19.80;49.60;;;;;;5049445;28;20311;-63
2022/01/04 00:54:11;;;;;;;;;;;19.80;49.60;;;;;;5051441;28;19913;-63
2022/01/04 00:56:37;;;;;;;;;;;19.80;49.70;;;;;;5049044;28;19923;-63
2022/01/04 00:59:02;;;;;;;;;;;19.80;49.80;;;;;;5047762;28;20296;-63
2022/01/04 01:01:28;;;;;;;;;;;19.70;49.80;;;;;;5053655;28;19917;-63
2022/01/04 01:03:53;;;;;;;;;;;19.70;49.80;;;;;;5054648;28;20018;-63
2022/01/04 01:06:19;;;;;;;;;;;19.70;49.90;;;;;;5053052;28;19920;-63
2022/01/04 01:08:44;;;;;;;;;;;19.70;50.10;;;;;;5053137;28;19920;-63
2022/01/04 01:11:10;;;;;;;;;;;19.70;50.10;;;;;;5052292;28;19949;-63
2022/01/04 01:13:35;;;;;;;;;;;19.60;50.10;;;;;;5054658;28;19917;-63
2022/01/04 01:16:01;;;;;;;;;;;19.60;50.00;;;;;;5094999;28;20378;-63
2022/01/04 01:18:26;;;;;;;;;;;19.60;50.00;;;;;;5094908;28;20349;-63
2022/01/04 01:20:52;;;;;;;;;;;19.60;50.00;;;;;;5094320;28;19938;-63
2022/01/04 01:35:58;;;;;;;;;;;19.60;50.00;;;;;;5094928;28;19923;-63
2022/01/04 01:38:23;;;;;;;;;;;19.50;49.80;;;;;;5084844;28;19916;-63
2022/01/04 01:40:49;;;;;;;;;;;19.60;50.00;;;;;;5080411;28;19923;-63
2022/01/04 01:43:15;;;;;;;;;;;19.60;50.00;;;;;;5077892;28;20397;-63
2022/01/04 01:45:40;;;;;;;;;;;19.60;50.00;;;;;;5086976;28;19912;-64
2022/01/04 01:48:06;;;;;;;;;;;19.50;49.90;;;;;;5092971;28;19916;-63
2022/01/04 01:50:31;;;;;;;;;;;19.50;49.90;;;;;;5092417;28;20011;-63
2022/01/04 01:52:56;;;;;;;;;;;19.50;50.00;;;;;;5092108;28;19912;-63
2022/01/04 01:55:22;;;;;;;;;;;19.50;49.90;;;;;;5086410;28;19923;-63
2022/01/04 01:57:48;;;;;;;;;;;19.50;50.50;;;;;;5086670;28;19912;-63
2022/01/04 02:00:14;;;;;;;;;;;19.50;49.90;;;;;;5092510;28;19920;-63
2022/01/04 02:02:40;;;;;;;;;;;19.50;50.00;;;;;;5091942;28;20283;-63
2022/01/04 02:05:05;;;;;;;;;;;19.50;50.00;;;;;;5092799;28;19912;-63
2022/01/04 02:07:31;;;;;;;;;;;19.50;50.00;;;;;;5092077;28;20018;-63
2022/01/04 02:10:03;;;;;;;;;;;19.40;50.40;;;;;;5094402;28;20403;-63
2022/01/04 02:12:32;;;;;;;;;;;19.20;50.70;;;;;;5093567;28;19912;-63
2022/01/04 02:14:58;;;;;;;;;;;19.10;51.10;;;;;;5126505;27;20000;-63
2022/01/04 02:17:23;;;;;;;;;;;19.00;51.20;;;;;;5092731;28;19940;-63
2022/01/04 02:19:49;;;;;;;;;;;19.00;51.10;;;;;;5078852;28;19916;-63
2022/01/04 02:22:15;;;;;;;;;;;19.10;51.20;;;;;;5092901;28;19923;-63
2022/01/04 02:24:40;;;;;;;;;;;19.00;51.30;;;;;;5088896;28;20376;-63
2022/01/04 02:27:06;;;;;;;;;;;19.00;51.40;;;;;;5093084;28;20298;-63
2022/01/04 02:29:31;;;;;;;;;;;19.00;51.40;;;;;;5092179;28;20299;-63
2022/01/04 02:31:57;;;;;;;;;;;19.10;51.50;;;;;;5093388;28;19919;-63
2022/01/04 02:34:22;;;;;;;;;;;19.20;51.30;;;;;;5093593;28;19912;-63
2022/01/04 02:36:47;;;;;;;;;;;19.30;51.00;;;;;;5092626;28;19912;-63
2022/01/04 02:39:13;;;;;;;;;;;19.50;50.70;;;;;;5093307;28;19924;-63
2022/01/04 02:41:38;;;;;;;;;;;19.80;50.30;;;;;;5093398;28;20014;-63
2022/01/04 02:44:04;;;;;;;;;;;20.00;49.90;;;;;;5093224;28;19912;-63
2022/01/04 02:46:30;;;;;;;;;;;20.20;49.50;;;;;;5093265;28;20023;-63
2022/01/04 02:48:55;;;;;;;;;;;20.40;49.20;;;;;;5093299;28;19923;-63
2022/01/04 02:51:22;;;;;;;;;;;20.50;48.90;;;;;;5092289;28;19912;-63
2022/01/04 02:53:48;;;;;;;;;;;20.50;48.60;;;;;;5092892;28;19918;-63
2022/01/04 02:56:13;;;;;;;;;;;20.60;48.60;;;;;;5092908;28;19916;-63
2022/01/04 02:58:39;;;;;;;;;;;20.60;48.50;;;;;;5086791;28;19959;-63
2022/01/04 03:01:04;;;;;;;;;;;20.60;48.50;;;;;;5091263;28;20014;-63
2022/01/04 03:03:30;;;;;;;;;;;20.60;48.60;;;;;;5092183;28;20376;-63
2022/01/04 03:05:55;;;;;;;;;;;20.50;48.50;;;;;;5090500;28;19939;-64
2022/01/04 03:08:21;;;;;;;;;;;20.50;48.50;;;;;;5079539;28;19912;-63
2022/01/04 03:10:47;;;;;;;;;;;20.60;48.50;;;;;;5092762;28;19913;-63
2022/01/04 03:13:13;;;;;;;;;;;20.60;48.50;;;;;;5124896;27;19912;-63
2022/01/04 03:15:39;;;;;;;;;;;20.60;48.50;;;;;;5092161;28;19946;-63
2022/01/04 03:18:04;;;;;;;;;;;20.60;48.40;;;;;;5090546;28;20470;-63
2022/01/04 03:20:30;;;;;;;;;;;20.60;48.30;;;;;;5092162;28;19923;-64
2022/01/04 03:22:55;;;;;;;;;;;20.60;48.30;;;;;;5083338;28;19916;-64
2022/01/04 03:25:21;;;;;;;;;;;20.60;48.20;;;;;;5092134;28;19912;-63
2022/01/04 03:27:46;;;;;;;;;;;20.60;48.20;;;;;;5092180;28;19919;-63
2022/01/04 03:30:12;;;;;;;;;;;20.60;48.20;;;;;;5092467;28;19920;-63
2022/01/04 03:32:37;;;;;;;;;;;20.60;48.20;;;;;;5092828;28;19916;-63
2022/01/04 03:35:03;;;;;;;;;;;20.60;48.20;;;;;;5091876;28;20005;-63
2022/01/04 03:37:28;;;;;;;;;;;20.60;48.10;;;;;;5091565;28;19919;-63
2022/01/04 03:39:54;;;;;;;;;;;20.60;48.00;;;;;;5090974;28;19951;-63
2022/01/04 03:42:19;;;;;;;;;;;20.70;48.00;;;;;;5085678;28;20268;-63
2022/01/04 03:44:45;;;;;;;;;;;20.70;47.90;;;;;;5088544;28;20330;-63
2022/01/04 03:47:10;;;;;;;;;;;20.70;47.80;;;;;;5091715;28;20264;-63
2022/01/04 03:49:35;;;;;;;;;;;20.70;47.70;;;;;;5091958;28;20289;-63
2022/01/04 03:52:01;;;;;;;;;;;20.70;47.70;;;;;;5090913;28;20302;-63
2022/01/04 03:54:26;;;;;;;;;;;20.70;47.70;;;;;;5092088;28;19912;-63
2022/01/04 03:56:52;;;;;;;;;;;20.70;47.70;;;;;;5091840;28;20279;-63
2022/01/04 03:59:17;;;;;;;;;;;20.70;47.60;;;;;;5124581;27;19916;-63
2022/01/04 04:01:43;;;;;;;;;;;20.70;47.60;;;;;;5091965;28;19923;-63
2022/01/04 04:04:08;;;;;;;;;;;20.70;47.60;;;;;;5091301;28;20311;-63
2022/01/04 04:06:34;;;;;;;;;;;20.70;47.50;;;;;;5091429;28;20355;-63
2022/01/04 04:08:59;;;;;;;;;;;20.70;47.50;;;;;;5090711;28;19916;-63
2022/01/04 04:11:25;;;;;;;;;;;20.70;47.50;;;;;;5091743;28;19999;-63
2022/01/04 04:13:50;;;;;;;;;;;20.70;47.60;;;;;;5089460;28;19951;-63
2022/01/04 04:16:16;;;;;;;;;;;20.70;47.40;;;;;;5091889;28;19963;-63
2022/01/04 04:18:41;;;;;;;;;;;20.70;47.80;;;;;;5090001;28;19908;-63
2022/01/04 04:21:07;;;;;;;;;;;20.70;47.90;;;;;;5087456;28;19920;-63
2022/01/04 04:23:32;;;;;;;;;;;20.60;47.80;;;;;;5090686;28;19958;-63
2022/01/04 04:25:58;;;;;;;;;;;20.50;48.00;;;;;;5091216;28;20299;-63
2022/01/04 04:28:23;;;;;;;;;;;20.50;48.00;;;;;;5091299;28;19908;-63
2022/01/04 04:30:48;;;;;;;;;;;20.50;48.10;;;;;;5091661;28;19955;-63
2022/01/04 04:33:14;;;;;;;;;;;20.40;48.20;;;;;;5095259;28;19957;-63
2022/01/04 04:35:39;;;;;;;;;;;20.50;48.30;;;;;;5095700;28;20024;-63
2022/01/04 04:38:06;;;;;;;;;;;20.50;48.00;;;;;;5089415;28;19957;-63
2022/01/04 04:40:32;;;;;;;;;;;20.50;47.70;;;;;;5095368;28;19916;-63
2022/01/04 04:42:58;;;;;;;;;;;20.60;47.90;;;;;;5094044;28;19972;-63
2022/01/04 04:45:23;;;;;;;;;;;20.60;47.70;;;;;;5095218;28;20010;-63
2022/01/04 04:47:49;;;;;;;;;;;20.60;47.70;;;;;;5094412;28;19919;-63
2022/01/04 04:50:14;;;;;;;;;;;20.60;47.50;;;;;;5095003;28;19995;-63
2022/01/04 04:52:39;;;;;;;;;;;20.60;47.50;;;;;;5097307;28;19917;-63
2022/01/04 04:55:05;;;;;;;;;;;20.70;47.60;;;;;;5084731;28;19970;-63
2022/01/04 04:57:31;;;;;;;;;;;20.70;47.60;;;;;;5095132;28;19916;-63
2022/01/04 04:59:56;;;;;;;;;;;20.70;47.60;;;;;;5095328;28;19913;-63
2022/01/04 05:02:21;;;;;;;;;;;20.70;47.60;;;;;;5093769;28;20432;-63
2022/01/04 05:04:47;;;;;;;;;;;20.70;47.60;;;;;;5095059;28;19912;-63
2022/01/04 05:07:12;;;;;;;;;;;20.70;47.60;;;;;;5088351;28;19919;-63
2022/01/04 05:09:38;;;;;;;;;;;20.70;47.50;;;;;;5095484;28;20008;-63
2022/01/04 05:12:05;;;;;;;;;;;20.70;47.50;;;;;;5093355;28;19912;-63
2022/01/04 05:14:31;;;;;;;;;;;20.70;47.60;;;;;;5093803;28;19927;-63
2022/01/04 05:16:57;;;;;;;;;;;20.70;47.70;;;;;;5094431;28;20295;-63
2022/01/04 05:19:22;;;;;;;;;;;20.60;47.60;;;;;;5080601;28;19912;-63
2022/01/04 05:21:47;;;;;;;;;;;20.70;47.70;;;;;;5094728;28;19915;-64
2022/01/04 05:24:13;;;;;;;;;;;20.70;47.70;;;;;;5094523;28;20372;-63
2022/01/04 05:26:38;;;;;;;;;;;20.60;47.50;;;;;;5094801;28;20325;-63
2022/01/04 05:29:04;;;;;;;;;;;20.60;47.40;;;;;;5092989;28;20295;-63
2022/01/04 05:31:29;;;;;;;;;;;20.60;47.40;;;;;;5094620;28;19916;-63
2022/01/04 05:33:55;;;;;;;;;;;20.60;47.40;;;;;;5094862;28;19963;-64
2022/01/04 05:36:20;;;;;;;;;;;20.60;47.40;;;;;;5126751;27;19969;-63
2022/01/04 05:38:47;;;;;;;;;;;20.60;47.40;;;;;;5088733;28;19958;-63
2022/01/04 05:41:13;;;;;;;;;;;20.60;47.40;;;;;;5074257;28;19913;-63
2022/01/04 05:43:38;;;;;;;;;;;20.60;47.40;;;;;;5088394;28;19912;-63
2022/01/04 05:46:04;;;;;;;;;;;20.60;47.40;;;;;;5094666;28;19984;-63
2022/01/04 05:48:29;;;;;;;;;;;20.70;47.40;;;;;;5094277;28;19912;-63
2022/01/04 05:50:55;;;;;;;;;;;20.70;47.30;;;;;;5087233;28;19962;-63
2022/01/04 05:53:20;;;;;;;;;;;20.70;47.30;;;;;;5086324;28;19923;-63
2022/01/04 05:55:45;;;;;;;;;;;20.70;47.40;;;;;;5094096;28;19923;-63
2022/01/04 05:58:11;;;;;;;;;;;20.70;47.40;;;;;;5090812;28;20010;-63
2022/01/04 06:00:36;;;;;;;;;;;20.70;47.40;;;;;;5094022;28;19912;-63
2022/01/04 06:03:02;;;;;;;;;;;20.60;47.40;;;;;;5092349;28;19927;-63
2022/01/04 06:05:28;;;;;;;;;;;20.70;47.40;;;;;;5092749;28;20349;-63
2022/01/04 06:07:53;;;;;;;;;;;20.70;47.50;;;;;;5091789;28;20353;-63
2022/01/04 06:10:19;;;;;;;;;;;20.60;47.40;;;;;;5092263;28;20376;-63
2022/01/04 06:15:10;;;;;;;;;;;20.60;47.50;;;;;;5094025;28;19924;-63
2022/01/04 06:17:41;;;;;;;;;;;20.60;47.40;;;;;;5093529;28;19912;-63
2022/01/04 06:20:07;;;;;;;;;;;20.60;47.50;;;;;;5086724;28;19960;-63
2022/01/04 06:22:32;;;;;;;;;;;20.60;47.30;;;;;;5072861;28;19908;-63
2022/01/04 06:24:58;;;;;;;;;;;20.60;47.30;;;;;;5082242;28;19970;-63
2022/01/04 06:27:23;;;;;;;;;;;20.60;47.30;;;;;;5092190;28;19912;-63
2022/01/04 06:29:49;;;;;;;;;;;20.60;47.30;;;;;;5091226;28;19915;-63
2022/01/04 06:32:15;;;;;;;;;;;20.60;47.30;;;;;;5082957;28;19916;-63
2022/01/04 06:34:41;;;;;;;;;;;20.60;47.30;;;;;;5085695;28;19916;-63
2022/01/04 06:37:06;;;;;;;;;;;20.60;47.30;;;;;;5091591;28;19961;-63
2022/01/04 06:39:32;;;;;;;;;;;20.60;47.30;;;;;;5091898;28;19912;-63
2022/01/04 06:41:57;;;;;;;;;;;20.60;47.30;;;;;;5092724;28;19965;-63
2022/01/04 06:44:23;;;;;;;;;;;20.60;47.40;;;;;;5093220;28;20360;-63
2022/01/04 06:46:48;;;;;;;;;;;20.60;47.40;;;;;;5089863;28;19916;-63
2022/01/04 06:49:14;;;;;;;;;;;20.60;47.30;;;;;;5092916;28;20175;-64
2022/01/04 06:51:40;;;;;;;;;;;20.60;47.20;;;;;;5093358;28;19916;-63
2022/01/04 06:54:06;;;;;;;;;;;20.60;47.20;;;;;;5091891;28;19947;-63
2022/01/04 06:56:31;;;;;;;;;;;20.60;47.10;;;;;;5090893;28;20392;-63
2022/01/04 06:58:57;;;;;;;;;;;20.60;47.20;;;;;;5092892;28;20010;-63
2022/01/04 07:01:22;;;;;;;;;;;20.60;47.40;;;;;;5089145;28;19912;-63
2022/01/04 07:03:48;;;;;;;;;;;20.60;47.50;;;;;;5089325;28;20295;-63
2022/01/04 07:06:13;;;;;;;;;;;20.60;47.30;;;;;;5091051;28;19912;-63
2022/01/04 07:08:38;;;;;;;;;;;20.60;47.30;;;;;;5091128;28;20283;-63
2022/01/04 07:11:05;;;;;;;;;;;20.60;47.30;;;;;;5093143;28;19912;-63
2022/01/04 07:13:30;;;;;;;;;;;20.60;47.20;;;;;;5074571;28;20384;-63
2022/01/04 07:15:56;;;;;;;;;;;20.60;47.20;;;;;;5087258;28;19942;-63
2022/01/04 07:18:21;;;;;;;;;;;20.60;47.10;;;;;;5091121;28;20295;-63
2022/01/04 07:20:47;;;;;;;;;;;20.60;47.00;;;;;;5091053;28;19919;-63
2022/01/04 07:23:12;;;;;;;;;;;20.50;46.90;;;;;;5091498;28;19912;-63
2022/01/04 07:25:37;;;;;;;;;;;20.60;47.00;;;;;;5092664;28;19943;-63
2022/01/04 07:28:03;;;;;;;;;;;20.60;47.00;;;;;;5092103;28;19919;-63
2022/01/04 07:30:28;;;;;;;;;;;20.60;47.10;;;;;;5092487;28;19912;-63
2022/01/04 07:32:54;;;;;;;;;;;20.60;47.20;;;;;;5092242;28;19920;-63
2022/01/04 07:35:19;;;;;;;;;;;20.60;47.10;;;;;;5125189;27;20041;-63
2022/01/04 07:37:45;;;;;;;;;;;20.60;47.10;;;;;;5091567;28;20000;-63
2022/01/04 07:40:10;;;;;;;;;;;20.60;47.10;;;;;;5092317;28;19916;-63
2022/01/04 07:42:36;;;;;;;;;;;20.50;47.20;;;;;;5091641;28;19916;-63
2022/01/04 07:45:02;;;;;;;;;;;20.60;46.90;;;;;;5071655;28;19962;-63
2022/01/04 07:47:28;;;;;;;;;;;20.60;47.00;;;;;;5072832;28;19999;-63
2022/01/04 07:49:53;;;;;;;;;;;20.60;47.10;;;;;;5090627;28;20359;-63
2022/01/04 07:52:19;;;;;;;;;;;20.60;46.90;;;;;;5087472;28;20010;-63
2022/01/04 07:54:44;;;;;;;;;;;20.60;46.90;;;;;;5090779;28;19916;-63
2022/01/04 07:57:10;;;;;;;;;;;20.60;46.80;;;;;;5089601;28;19923;-63
2022/01/04 07:59:35;;;;;;;;;;;20.60;46.80;;;;;;5091845;28;20387;-63
2022/01/04 08:02:01;;;;;;;;;;;20.60;46.70;;;;;;5090581;28;19912;-63
2022/01/04 08:04:26;;;;;;;;;;;20.60;46.70;;;;;;5089796;28;19965;-63
2022/01/04 08:06:52;;;;;;;;;;;20.60;46.80;;;;;;5089992;28;19912;-63
2022/01/04 08:09:17;;;;;;;;;;;20.60;46.90;;;;;;5091180;28;19920;-63
2022/01/04 08:11:43;;;;;;;;;;;20.60;46.90;;;;;;5091651;28;19956;-63
2022/01/04 08:14:08;;;;;;;;;;;20.60;46.90;;;;;;5089576;28;19924;-63
2022/01/04 08:16:36;;;;;;;;;;;20.60;46.90;;;;;;5089648;28;21365;-63
2022/01/04 08:19:01;;;;;;;;;;;20.60;46.80;;;;;;5091193;28;21499;-63
2022/01/04 08:21:27;;;;;;;;;;;20.60;46.80;;;;;;5089087;28;19912;-63
2022/01/04 08:23:52;;;;;;;;;;;20.60;46.90;;;;;;5091030;28;20284;-63
2022/01/04 08:26:18;;;;;;;;;;;20.60;46.80;;;;;;5090141;28;19959;-63
2022/01/04 08:28:44;;;;;;;;;;;20.60;46.80;;;;;;5085839;28;19939;-63
2022/01/04 08:31:11;;;;;;;;;;;20.60;46.90;;;;;;5090197;28;19912;-63
2022/01/04 08:33:37;;;;;;;;;;;20.60;47.00;;;;;;5091539;28;19912;-63
2022/01/04 08:36:03;;;;;;;;;;;20.50;47.00;;;;;;5070186;28;19924;-63
2022/01/04 08:38:28;;;;;;;;;;;20.40;47.10;;;;;;5087571;28;19919;-63
2022/01/04 08:40:53;;;;;;;;;;;20.40;47.30;;;;;;5089751;28;19912;-63
2022/01/04 08:43:19;;;;;;;;;;;20.40;47.40;;;;;;5091148;28;19916;-63
2022/01/04 08:45:44;;;;;;;;;;;20.30;47.40;;;;;;5088888;28;19989;-63
2022/01/04 08:48:10;;;;;;;;;;;20.30;47.50;;;;;;5089769;28;20439;-63
2022/01/04 08:50:35;;;;;;;;;;;20.30;47.50;;;;;;5089309;28;19920;-63
2022/01/04 08:53:01;;;;;;;;;;;20.30;47.60;;;;;;5089132;28;20308;-63
2022/01/04 08:55:26;;;;;;;;;;;20.20;47.60;;;;;;5074712;28;19916;-63
2022/01/04 08:57:52;;;;;;;;;;;20.20;47.50;;;;;;5089709;28;20003;-63
2022/01/04 09:00:17;;;;;;;;;;;20.30;47.60;;;;;;5089490;28;19924;-63
2022/01/04 09:02:43;;;;;;;;;;;20.30;47.50;;;;;;5089727;28;19912;-63
2022/01/04 09:05:09;;;;;;;;;;;20.30;47.60;;;;;;5091062;28;20006;-63
2022/01/04 09:07:35;;;;;;;;;;;20.20;47.60;;;;;;5090999;28;19947;-63
2022/01/04 09:10:00;;;;;;;;;;;20.20;47.70;;;;;;5091415;28;19923;-63
2022/01/04 09:12:34;;;;;;;;;;;20.20;47.70;;;;;;5091230;28;19999;-63
2022/01/04 09:15:16;;;;;;;;;;;20.20;47.70;;;;;;5091595;28;19974;-63
2022/01/04 09:20:25;;;;;;;;;;;20.20;47.60;;;;;;5074806;28;19922;-63
2022/01/04 09:22:51;;;;;;;;;;;20.20;47.70;;;;;;5088054;28;19912;-63
2022/01/04 09:25:18;;;;;;;;;;;20.30;47.80;;;;;;5095084;28;20002;-63
2022/01/04 09:27:43;;;;;;;;;;;20.30;47.70;;;;;;5094963;28;20403;-63
2022/01/04 09:30:09;;;;;;;;;;;20.30;47.70;;;;;;5095187;28;19939;-63
2022/01/04 09:32:35;;;;;;;;;;;20.30;47.60;;;;;;5094189;28;19938;-63
2022/01/04 09:35:01;;;;;;;;;;;20.30;48.20;;;;;;5095229;28;19959;-63
2022/01/04 09:37:26;;;;;;;;;;;20.30;47.60;;;;;;5093374;28;20376;-63
2022/01/04 09:39:52;;;;;;;;;;;20.30;47.80;;;;;;5093824;28;19916;-63
2022/01/04 09:42:18;;;;;;;;;;;20.30;48.20;;;;;;5093786;28;20391;-63
2022/01/04 09:44:44;;;;;;;;;;;20.30;48.30;;;;;;5092676;28;20002;-63
2022/01/04 09:47:09;;;;;;;;;;;20.40;48.10;;;;;;5093856;28;20419;-63
2022/01/04 09:49:35;;;;;;;;;;;20.50;47.90;;;;;;5093113;28;19924;-63
2022/01/04 09:52:00;;;;;;;;;;;20.70;47.70;;;;;;5093334;28;19915;-63
2022/01/04 09:54:25;;;;;;;;;;;20.90;47.60;;;;;;5094058;28;20363;-64
2022/01/04 09:56:51;;;;;;;;;;;21.00;47.40;;;;;;5083581;28;19916;-65
2022/01/04 09:59:17;;;;;;;;;;;21.10;47.40;;;;;;5094173;28;20376;-64
2022/01/04 10:01:45;;;;;;;;;;;21.20;47.40;;;;;;5092457;28;19969;-63
2022/01/04 10:04:11;;;;;;;;;;;21.30;47.30;;;;;;5093168;28;20380;-64
2022/01/04 10:06:39;;;;;;;;;;;21.40;47.30;;;;;;5093104;28;19957;-64
2022/01/04 10:09:11;;;;;;;;;;;21.40;47.30;;;;;;5092685;28;19927;-64
2022/01/04 10:11:43;;;;;;;;;;;21.50;47.50;;;;;;5074907;28;20010;-64
2022/01/04 10:14:25;;;;;;;;;;;21.50;47.40;;;;;;5092865;28;20352;-64
2022/01/04 10:16:54;;;;;;;;;;;21.50;47.40;;;;;;5092958;28;19928;-64
2022/01/04 10:19:46;;;;;;;;;;;21.60;47.50;;;;;;5092916;28;19927;-64
2022/01/04 10:22:19;;;;;;;;;;;21.60;47.50;;;;;;5080867;28;19958;-64
2022/01/04 10:24:45;;;;;;;;;;;21.70;47.60;;;;;;5064106;28;20369;-64
2022/01/04 10:27:20;;;;;;;;;;;21.60;47.50;;;;;;5078170;28;19999;-64
2022/01/04 10:29:46;;;;;;;;;;;21.70;47.60;;;;;;5086275;28;19916;-64
2022/01/04 10:32:12;;;;;;;;;;;21.70;47.70;;;;;;5093193;28;19919;-64
2022/01/04 10:34:47;;;;;;;;;;;21.70;47.60;;;;;;5092796;28;19912;-64
2022/01/04 10:37:31;;;;;;;;;;;21.70;47.50;;;;;;5091996;28;19916;-64
2022/01/04 10:40:06;;;;;;;;;;;21.70;47.60;;;;;;5092305;28;19931;-64
2022/01/04 10:42:32;;;;;;;;;;;21.70;47.60;;;;;;5088254;28;20010;-64
2022/01/04 10:44:57;;;;;;;;;;;21.70;47.60;;;;;;5091705;28;20328;-63
2022/01/04 10:47:27;;;;;;;;;;;21.80;47.60;;;;;;5091462;28;19916;-64
2022/01/04 10:49:52;;;;;;;;;;;21.70;48.20;;;;;;5092531;28;20384;-64
2022/01/04 10:52:22;;;;;;;;;;;21.80;47.60;;;;;;5082584;28;19959;-64
2022/01/04 10:55:06;;;;;;;;;;;21.80;47.60;;;;;;5093575;28;19915;-63
2022/01/04 10:57:34;;;;;;;;;;;21.80;47.50;;;;;;5082923;28;19992;-64
2022/01/04 11:00:11;;;;;;;;;;;21.90;47.50;;;;;;5093076;28;20372;-65
2022/01/04 11:02:36;;;;;;;;;;;22.00;47.30;;;;;;5090496;28;20330;-63
2022/01/04 11:05:15;;;;;;;;;;;22.10;47.20;;;;;;5091988;28;19965;-64
2022/01/04 11:07:55;;;;;;;;;;;22.20;47.10;;;;;;5088996;28;19997;-65
2022/01/04 11:10:21;;;;;;;;;;;22.30;47.00;;;;;;5083471;28;19947;-64
2022/01/04 11:12:46;;;;;;;;;;;22.30;46.80;;;;;;5091664;28;19912;-65
2022/01/04 11:15:12;;;;;;;;;;;22.40;46.70;;;;;;5086305;28;19920;-65
2022/01/04 11:17:38;;;;;;;;;;;22.50;46.60;;;;;;5091593;28;20015;-65
2022/01/04 11:20:04;;;;;;;;;;;22.50;46.50;;;;;;5089837;28;20004;-65
2022/01/04 11:22:29;;;;;;;;;;;22.50;46.50;;;;;;5090848;28;19970;-65
2022/01/04 11:24:54;;;;;;;;;;;22.60;46.60;;;;;;5092058;28;19931;-64
2022/01/04 11:27:20;;;;;;;;;;;22.60;46.50;;;;;;5091765;28;19978;-65
2022/01/04 11:29:45;;;;;;;;;;;22.60;46.40;;;;;;5091898;28;19916;-65
2022/01/04 11:32:12;;;;;;;;;;;22.70;46.40;;;;;;5090545;28;19916;-64
2022/01/04 11:34:42;;;;;;;;;;;22.70;46.30;;;;;;5075556;28;19913;-64
2022/01/04 11:37:09;;;;;;;;;;;22.70;46.20;;;;;;5089569;28;19918;-64
2022/01/04 11:39:36;;;;;;;;;;;22.70;46.20;;;;;;5090151;28;19969;-65
2022/01/04 11:42:03;;;;;;;;;;;22.70;46.30;;;;;;5069031;28;20041;-65
2022/01/04 11:44:29;;;;;;;;;;;22.80;46.40;;;;;;5086777;28;19924;-65
2022/01/04 11:47:01;;;;;;;;;;;22.80;46.40;;;;;;5089632;28;19938;-65
2022/01/04 11:49:27;;;;;;;;;;;22.80;46.50;;;;;;5091201;28;19920;-64
2022/01/04 11:51:52;;;;;;;;;;;22.90;46.70;;;;;;5095721;28;19955;-65
2022/01/04 11:54:20;;;;;;;;;;;22.80;46.70;;;;;;5088641;28;19948;-64
2022/01/04 11:56:46;;;;;;;;;;;22.90;46.80;;;;;;5089281;28;19957;-64
2022/01/04 11:59:38;;;;;;;;;;;22.90;46.80;;;;;;5082680;28;20276;-65
2022/01/04 12:02:23;;;;;;;;;;;22.90;46.80;;;;;;5086660;28;19919;-66
2022/01/04 12:04:52;;;;;;;;;;;22.90;46.80;;;;;;5091321;28;19915;-65
2022/01/04 12:07:36;;;;;;;;;;;22.90;46.80;;;;;;5090251;28;20284;-65
2022/01/04 12:10:22;;;;;;;;;;;22.90;46.90;;;;;;5085654;28;20362;-64
2022/01/04 12:12:54;;;;;;;;;;;23.00;46.90;;;;;;5090932;28;19912;-65
2022/01/04 12:15:34;;;;;;;;;;;22.90;46.80;;;;;;5085818;28;19920;-65
2022/01/04 12:17:59;;;;;;;;;;;23.00;46.90;;;;;;5084009;28;20014;-65
2022/01/04 12:20:43;;;;;;;;;;;23.00;46.90;;;;;;5091467;28;19963;-65
2022/01/04 12:23:29;;;;;;;;;;;23.00;46.90;;;;;;5089002;28;19913;-65
2022/01/04 12:26:13;;;;;;;;;;;23.00;46.90;;;;;;5091646;28;19912;-65
2022/01/04 12:28:39;;;;;;;;;;;23.00;46.90;;;;;;5090899;28;20376;-65
2022/01/04 12:31:18;;;;;;;;;;;23.00;46.90;;;;;;5116012;27;19920;-65
2022/01/04 12:33:43;;;;;;;;;;;23.00;46.90;;;;;;5086496;28;20448;-65
2022/01/04 12:36:09;;;;;;;;;;;23.00;46.90;;;;;;5083745;28;19923;-65
2022/01/04 12:38:34;;;;;;;;;;;23.10;47.00;;;;;;5076924;28;20340;-65
2022/01/04 12:41:01;;;;;;;;;;;23.10;46.80;;;;;;5123453;27;19916;-65
2022/01/04 12:43:27;;;;;;;;;;;23.10;46.80;;;;;;5090566;28;19920;-65
2022/01/04 12:45:56;;;;;;;;;;;23.10;46.80;;;;;;5090700;28;19959;-65
2022/01/04 12:48:41;;;;;;;;;;;23.10;46.70;;;;;;5090559;28;19958;-64
2022/01/04 12:51:25;;;;;;;;;;;23.10;46.70;;;;;;5085411;28;20268;-64
2022/01/04 12:53:51;;;;;;;;;;;23.20;46.90;;;;;;5097683;28;19920;-65
2022/01/04 12:56:16;;;;;;;;;;;23.20;46.80;;;;;;5090809;27;19919;-65
2022/01/04 12:58:42;;;;;;;;;;;23.20;46.80;;;;;;5080448;28;20296;-65
2022/01/04 13:01:08;;;;;;;;;;;23.20;46.60;;;;;;5089013;28;19962;-65
2022/01/04 13:03:33;;;;;;;;;;;23.20;46.40;;;;;;5094305;28;19996;-65
2022/01/04 13:06:00;;;;;;;;;;;23.20;46.40;;;;;;5093292;28;19912;-65
2022/01/04 13:08:28;;;;;;;;;;;23.10;46.40;;;;;;5092258;28;20325;-66
2022/01/04 13:11:06;;;;;;;;;;;23.20;46.50;;;;;;5089561;28;19919;-65
2022/01/04 13:13:32;;;;;;;;;;;23.20;46.40;;;;;;5095878;28;20411;-64
2022/01/04 13:16:17;;;;;;;;;;;23.20;46.40;;;;;;5086701;28;20050;-65
2022/01/04 13:18:43;;;;;;;;;;;23.20;46.50;;;;;;5083724;28;19912;-65
2022/01/04 13:21:08;;;;;;;;;;;23.20;46.40;;;;;;5094120;28;19912;-66
2022/01/04 13:23:40;;;;;;;;;;;23.20;46.40;;;;;;5092296;28;19912;-65
2022/01/04 13:26:06;;;;;;;;;;;23.30;46.40;;;;;;5090831;28;19927;-65
2022/01/04 13:28:33;;;;;;;;;;;23.30;46.90;;;;;;5094203;28;19912;-66
2022/01/04 13:30:58;;;;;;;;;;;23.30;46.40;;;;;;5091075;28;19966;-65
2022/01/04 13:33:24;;;;;;;;;;;23.30;46.40;;;;;;5091543;28;19916;-64
2022/01/04 13:35:49;;;;;;;;;;;23.30;46.40;;;;;;5092582;28;19916;-65
2022/01/04 13:38:17;;;;;;;;;;;23.30;46.40;;;;;;5090799;28;20624;-65
2022/01/04 13:40:43;;;;;;;;;;;23.30;46.40;;;;;;5091834;28;19994;-66
2022/01/04 13:43:12;;;;;;;;;;;23.30;46.40;;;;;;5091917;28;20003;-65
2022/01/04 13:45:42;;;;;;;;;;;23.30;46.50;;;;;;5092545;28;19977;-67
2022/01/04 13:48:08;;;;;;;;;;;23.40;46.40;;;;;;5091381;28;20007;-67
2022/01/04 13:50:34;;;;;;;;;;;23.40;46.40;;;;;;5095681;28;20010;-67
2022/01/04 13:53:06;;;;;;;;;;;23.40;46.50;;;;;;5091365;28;19913;-67
2022/01/04 13:55:49;;;;;;;;;;;23.30;46.40;;;;;;5091330;28;20380;-67
2022/01/04 13:58:33;;;;;;;;;;;23.40;46.50;;;;;;5092914;28;20380;-66
2022/01/04 14:01:17;;;;;;;;;;;23.30;46.50;;;;;;5088741;28;19912;-64
2022/01/04 14:03:43;;;;;;;;;;;23.30;46.40;;;;;;5097713;28;19998;-64
2022/01/04 14:06:28;;;;;;;;;;;23.40;46.20;;;;;;5132054;27;19912;-64
2022/01/04 14:08:53;;;;;;;;;;;23.30;46.20;;;;;;5089385;28;19935;-64
2022/01/04 14:11:25;;;;;;;;;;;23.30;46.30;;;;;;5093585;28;19916;-64
2022/01/04 14:13:51;;;;;;;;;;;23.30;46.30;;;;;;5126047;27;19954;-64
2022/01/04 14:16:17;;;;;;;;;;;23.30;46.30;;;;;;5090612;28;19980;-64
2022/01/04 14:19:04;;;;;;;;;;;23.30;46.40;;;;;;5089959;28;20429;-65
2022/01/04 14:21:34;;;;;;;;;;;23.30;46.40;;;;;;5093066;28;19908;-63
2022/01/04 14:24:00;;;;;;;;;;;23.40;46.40;;;;;;5081870;28;19934;-64
2022/01/04 14:26:25;;;;;;;;;;;23.30;46.30;;;;;;5089201;28;19920;-63
2022/01/04 14:28:50;;;;;;;;;;;23.30;46.30;;;;;;5093231;28;20003;-63
2022/01/04 14:31:16;;;;;;;;;;;23.40;46.40;;;;;;5093252;28;20284;-63
2022/01/04 14:33:42;;;;;;;;;;;23.40;46.30;;;;;;5092884;28;19943;-63
2022/01/04 14:36:07;;;;;;;;;;;23.40;46.30;;;;;;5122284;27;19912;-63
2022/01/04 14:38:33;;;;;;;;;;;23.40;46.30;;;;;;5091937;28;19985;-63